createdAt,value
2022-12-12T00:00:58.610Z,91.60
2022-12-12T00:04:29.613Z,91.81
2022-12-12T00:07:56.348Z,91.89
2022-12-12T00:11:24.590Z,92.17
2022-12-12T00:14:51.287Z,92.14
2022-12-12T00:18:18.125Z,92.40
2022-12-12T00:21:45.042Z,92.31
2022-12-12T00:25:12.881Z,92.43
2022-12-12T00:28:39.817Z,92.36
2022-12-12T00:32:06.911Z,92.40
2022-12-12T00:35:33.676Z,92.37
2022-12-12T00:39:01.049Z,92.41
2022-12-12T00:42:28.576Z,92.41
2022-12-12T00:45:55.954Z,92.47
2022-12-12T00:49:22.591Z,92.44
2022-12-12T00:52:49.370Z,92.92
2022-12-12T00:56:18.073Z,92.80
2022-12-12T00:59:44.895Z,92.84
2022-12-12T01:03:11.611Z,92.79
2022-12-12T01:06:38.341Z,92.70
2022-12-12T01:10:06.044Z,92.87
2022-12-12T01:13:33.084Z,93.01
2022-12-12T01:16:59.787Z,93.46
2022-12-12T01:20:28.676Z,93.54
2022-12-12T01:23:55.383Z,94.04
2022-12-12T01:27:22.037Z,93.98
2022-12-12T01:30:48.644Z,94.18
2022-12-12T01:34:15.339Z,94.36
2022-12-12T01:37:42.931Z,94.67
2022-12-12T01:41:09.566Z,94.73
2022-12-12T01:44:46.595Z,94.88
2022-12-12T01:48:13.320Z,95.09
2022-12-12T01:51:42.030Z,95.26
2022-12-12T01:55:12.570Z,95.37
2022-12-12T01:58:40.627Z,95.35
2022-12-12T02:02:08.674Z,95.63
2022-12-12T02:05:40.531Z,95.63
2022-12-12T02:09:09.734Z,95.42
2022-12-12T02:12:36.926Z,95.19
2022-12-12T02:16:27.512Z,95.10
2022-12-12T02:20:29.167Z,95.02
2022-12-12T02:24:26.822Z,94.89
2022-12-12T02:28:11.751Z,94.81
2022-12-12T02:31:49.039Z,94.91
2022-12-12T02:35:20.776Z,94.75
2022-12-12T02:38:57.070Z,94.73
2022-12-12T02:42:28.922Z,94.86
2022-12-12T02:46:00.798Z,94.69
2022-12-12T02:49:33.973Z,94.63
2022-12-12T02:53:01.555Z,94.54
2022-12-12T02:56:49.830Z,94.46
2022-12-12T03:00:19.944Z,94.51
2022-12-12T03:04:09.416Z,94.30
2022-12-12T03:07:48.316Z,94.28
2022-12-12T03:11:19.779Z,94.25
2022-12-12T03:14:56.003Z,94.29
2022-12-12T03:18:28.933Z,94.23
2022-12-12T03:22:00.593Z,94.19
2022-12-12T03:25:31.779Z,94.12
2022-12-12T03:29:05.726Z,94.30
2022-12-12T03:32:36.049Z,94.21
2022-12-12T03:36:08.598Z,94.18
2022-12-12T03:39:40.719Z,94.30
2022-12-12T03:43:11.993Z,94.27
2022-12-12T03:46:44.467Z,94.10
2022-12-12T03:50:14.868Z,94.15
2022-12-12T03:53:48.830Z,94.18
2022-12-12T03:57:19.912Z,94.09
2022-12-12T04:00:49.483Z,94.16
2022-12-12T04:04:16.679Z,94.23
2022-12-12T04:07:49.639Z,94.08
2022-12-12T04:11:38.690Z,94.18
2022-12-12T04:15:21.057Z,94.04
2022-12-12T04:18:53.730Z,94.20
2022-12-12T04:22:42.487Z,94.13
2022-12-12T04:26:34.581Z,94.04
2022-12-12T04:30:05.108Z,93.97
2022-12-12T04:33:39.096Z,94.14
2022-12-12T04:37:08.835Z,94.03
2022-12-12T04:40:39.896Z,94.03
2022-12-12T04:44:10.854Z,94.08
2022-12-12T04:47:39.777Z,94.08
2022-12-12T04:51:07.656Z,94.16
2022-12-12T04:54:40.985Z,94.21
2022-12-12T04:58:08.965Z,94.19
2022-12-12T05:01:51.137Z,94.09
2022-12-12T05:19:40.828Z,93.50
2022-12-12T05:23:07.649Z,93.46
2022-12-12T05:26:36.016Z,93.68
2022-12-12T05:30:02.781Z,93.61
2022-12-12T05:33:29.647Z,93.77
2022-12-12T05:36:56.438Z,94.01
2022-12-12T05:40:23.997Z,94.20
2022-12-12T05:43:52.339Z,94.10
2022-12-12T05:47:19.875Z,94.26
2022-12-12T05:50:46.524Z,94.24
2022-12-12T05:54:13.804Z,94.40
2022-12-12T05:57:40.485Z,94.39
2022-12-12T06:01:08.657Z,94.31
2022-12-12T06:04:35.309Z,94.62
2022-12-12T06:08:01.983Z,94.41
2022-12-12T06:11:28.747Z,94.54
2022-12-12T06:14:55.398Z,94.45
2022-12-12T06:18:22.074Z,94.42
2022-12-12T06:21:48.933Z,94.46
2022-12-12T06:25:16.171Z,94.57
2022-12-12T06:28:43.488Z,94.48
2022-12-12T06:32:10.206Z,94.54
2022-12-12T06:35:37.005Z,94.60
2022-12-12T06:39:03.917Z,94.42
2022-12-12T06:42:30.488Z,94.54
2022-12-12T06:46:03.853Z,94.57
2022-12-12T06:49:30.613Z,94.69
2022-12-12T06:52:57.301Z,94.65
2022-12-12T06:56:26.764Z,94.65
2022-12-12T06:59:52.389Z,94.68
2022-12-12T07:03:19.346Z,94.68
2022-12-12T07:06:46.166Z,94.59
2022-12-12T07:10:13.084Z,94.60
2022-12-12T07:13:40.080Z,94.71
2022-12-12T07:17:06.888Z,94.65
2022-12-12T07:20:33.673Z,94.73
2022-12-12T07:24:00.310Z,94.66
2022-12-12T07:27:27.007Z,94.89
2022-12-12T07:30:53.859Z,94.80
2022-12-12T07:34:20.741Z,94.87
2022-12-12T07:37:47.641Z,94.79
2022-12-12T07:41:18.663Z,94.83
2022-12-12T07:44:47.653Z,94.75
2022-12-12T07:48:15.155Z,94.78
2022-12-12T07:51:45.651Z,94.83
2022-12-12T07:55:16.085Z,94.77
2022-12-12T07:58:43.306Z,94.75
2022-12-12T08:02:11.991Z,94.80
2022-12-12T08:05:41.930Z,94.68
2022-12-12T08:09:09.280Z,94.73
2022-12-12T08:12:36.336Z,94.67
2022-12-12T08:16:03.286Z,94.44
2022-12-12T08:19:30.397Z,94.42
2022-12-12T08:22:57.099Z,94.19
2022-12-12T08:26:23.774Z,94.26
2022-12-12T08:29:52.849Z,94.11
2022-12-12T08:33:19.961Z,93.35
2022-12-12T08:36:47.546Z,93.25
2022-12-12T08:40:15.024Z,93.34
2022-12-12T08:43:43.093Z,92.84
2022-12-12T08:47:09.834Z,92.62
2022-12-12T08:50:36.912Z,92.83
2022-12-12T08:54:03.586Z,92.52
2022-12-12T08:57:30.412Z,92.34
2022-12-12T09:00:57.820Z,92.55
2022-12-12T09:04:24.950Z,92.53
2022-12-12T09:07:52.616Z,92.48
2022-12-12T09:11:20.050Z,91.92
2022-12-12T09:14:46.779Z,91.57
2022-12-12T09:18:13.739Z,91.19
2022-12-12T09:21:40.631Z,90.85
2022-12-12T09:25:08.086Z,90.83
2022-12-12T09:28:34.815Z,90.82
2022-12-12T09:32:06.333Z,90.30
2022-12-12T09:35:33.355Z,90.86
2022-12-12T09:39:00.238Z,90.60
2022-12-12T09:42:29.709Z,90.00
2022-12-12T09:45:57.159Z,90.28
2022-12-12T09:49:30.503Z,90.59
2022-12-12T09:53:01.263Z,90.07
2022-12-12T09:56:35.812Z,89.83
2022-12-12T10:00:07.428Z,89.81
2022-12-12T10:03:50.708Z,89.97
2022-12-12T10:07:23.193Z,89.98
2022-12-12T10:10:53.844Z,90.05
2022-12-12T10:14:24.774Z,90.16
2022-12-12T10:17:52.703Z,89.95
2022-12-12T10:21:24.193Z,89.81
2022-12-12T10:24:54.788Z,89.50
2022-12-12T10:28:24.537Z,88.88
2022-12-12T10:31:58.355Z,88.47
2022-12-12T10:35:30.944Z,88.54
2022-12-12T10:39:10.015Z,87.69
2022-12-12T10:42:44.363Z,86.24
2022-12-12T10:47:04.395Z,87.35
2022-12-12T10:50:34.303Z,87.30
2022-12-12T10:54:01.148Z,86.91
2022-12-12T10:57:30.141Z,86.12
2022-12-12T11:01:04.693Z,86.57
2022-12-12T11:04:34.154Z,86.46
2022-12-12T11:08:08.126Z,86.53
2022-12-12T11:11:35.097Z,86.99
2022-12-12T11:15:07.533Z,85.93
2022-12-12T11:18:34.469Z,85.59
2022-12-12T11:22:05.918Z,85.83
2022-12-12T11:25:34.627Z,85.85
2022-12-12T11:29:06.095Z,85.26
2022-12-12T11:32:39.138Z,84.93
2022-12-12T11:36:07.501Z,85.61
2022-12-12T11:39:40.709Z,85.54
2022-12-12T11:43:26.486Z,85.28
2022-12-12T11:46:53.238Z,84.89
2022-12-12T11:50:23.845Z,83.58
2022-12-12T11:53:50.453Z,83.94
2022-12-12T11:57:29.705Z,83.05
2022-12-12T12:01:05.063Z,81.40
2022-12-12T12:04:53.281Z,82.10
2022-12-12T12:08:30.590Z,81.94
2022-12-12T12:13:55.911Z,81.42
2022-12-12T12:17:32.581Z,81.28
2022-12-12T12:21:28.307Z,82.07
2022-12-12T12:25:16.229Z,81.86
2022-12-12T12:29:12.801Z,81.88
2022-12-12T12:32:53.220Z,80.87
2022-12-12T12:36:25.261Z,80.21
2022-12-12T12:40:09.910Z,78.94
2022-12-12T12:47:04.975Z,79.25
2022-12-12T12:50:38.503Z,79.42
2022-12-12T12:54:08.557Z,79.58
2022-12-12T12:57:39.272Z,79.17
2022-12-12T13:01:10.084Z,78.97
2022-12-12T13:04:47.501Z,79.51
2022-12-12T13:08:24.275Z,79.22
2022-12-12T13:11:56.302Z,79.87
2022-12-12T13:15:27.330Z,80.60
2022-12-12T13:19:07.082Z,80.70
2022-12-12T13:22:48.092Z,80.66
2022-12-12T13:26:23.044Z,80.63
2022-12-12T13:29:54.278Z,80.97
2022-12-12T13:33:41.850Z,81.18
2022-12-12T13:37:09.408Z,81.21
2022-12-12T13:40:40.714Z,81.15
2022-12-12T13:44:28.058Z,81.29
2022-12-12T13:48:02.960Z,81.48
2022-12-12T13:51:41.337Z,81.76
2022-12-12T13:55:24.131Z,82.08
2022-12-12T13:58:50.778Z,82.29
2022-12-12T14:02:31.841Z,82.13
2022-12-12T14:06:12.610Z,82.53
2022-12-12T14:09:48.135Z,82.35
2022-12-12T14:13:27.502Z,82.55
2022-12-12T14:16:56.923Z,82.59
2022-12-12T14:20:30.972Z,82.67
2022-12-12T14:24:17.640Z,82.71
2022-12-12T14:28:14.632Z,82.92
2022-12-12T14:31:45.765Z,83.11
2022-12-12T14:39:28.632Z,83.56
2022-12-12T14:43:20.764Z,83.50
2022-12-12T14:46:49.328Z,83.73
2022-12-12T14:50:19.813Z,83.76
2022-12-12T14:53:49.789Z,83.70
2022-12-12T14:57:22.999Z,83.83
2022-12-12T15:00:53.766Z,83.87
2022-12-12T15:04:25.787Z,83.85
2022-12-12T15:08:01.027Z,84.00
2022-12-12T15:11:31.613Z,84.18
2022-12-12T15:14:59.658Z,84.03
2022-12-12T15:18:26.320Z,84.19
2022-12-12T15:21:53.579Z,84.02
2022-12-12T15:25:23.603Z,84.34
2022-12-12T15:28:51.736Z,84.30
2022-12-12T15:32:22.684Z,84.47
2022-12-12T15:35:59.681Z,84.39
2022-12-12T15:39:28.211Z,84.41
2022-12-12T15:42:58.630Z,84.51
2022-12-12T15:46:25.500Z,84.41
2022-12-12T15:49:54.440Z,84.55
2022-12-12T15:53:25.440Z,84.57
2022-12-12T15:56:53.486Z,84.49
2022-12-12T16:00:32.162Z,84.24
2022-12-12T16:04:01.614Z,84.26
2022-12-12T16:07:28.709Z,83.98
2022-12-12T16:10:56.747Z,83.96
2022-12-12T16:14:32.483Z,84.09
2022-12-12T16:18:16.340Z,83.94
2022-12-12T16:21:45.862Z,83.85
2022-12-12T16:25:21.234Z,83.98
2022-12-12T16:28:47.863Z,83.92
2022-12-12T16:32:19.002Z,84.17
2022-12-12T16:35:45.792Z,83.94
2022-12-12T16:39:13.998Z,83.84
2022-12-12T16:42:40.705Z,83.75
2022-12-12T16:46:08.080Z,83.76
2022-12-12T16:49:34.705Z,83.95
2022-12-12T16:53:01.311Z,83.60
2022-12-12T16:56:28.316Z,83.49
2022-12-12T16:59:55.260Z,83.51
2022-12-12T17:03:23.489Z,83.66
2022-12-12T17:06:50.731Z,83.49
2022-12-12T17:10:17.793Z,83.59
2022-12-12T17:13:50.155Z,83.74
2022-12-12T17:17:16.847Z,83.52
2022-12-12T17:20:44.090Z,83.51
2022-12-12T17:24:11.326Z,83.56
2022-12-12T17:27:38.373Z,83.63
2022-12-12T17:31:08.819Z,84.02
2022-12-12T17:34:36.124Z,83.80
2022-12-12T17:38:03.369Z,83.91
2022-12-12T17:41:30.124Z,84.04
2022-12-12T17:44:57.689Z,83.84
2022-12-12T17:48:25.094Z,83.93
2022-12-12T17:51:51.700Z,84.14
2022-12-12T17:55:55.237Z,84.06
2022-12-12T17:59:08.094Z,84.02
2022-12-12T18:02:33.934Z,84.03
2022-12-12T18:06:03.434Z,84.25
2022-12-12T18:09:30.173Z,84.18
2022-12-12T18:12:56.863Z,84.21
2022-12-12T18:16:25.772Z,84.15
2022-12-12T18:19:52.656Z,84.14
2022-12-12T18:23:19.978Z,84.15
2022-12-12T18:26:47.843Z,84.31
2022-12-12T18:30:16.307Z,84.34
2022-12-12T18:33:43.624Z,84.35
2022-12-12T18:37:10.296Z,84.47
2022-12-12T18:40:39.201Z,84.64
2022-12-12T18:44:09.241Z,84.53
2022-12-12T18:47:35.970Z,84.61
2022-12-12T18:51:08.319Z,84.68
2022-12-12T18:54:35.064Z,84.70
2022-12-12T18:58:02.136Z,84.83
2022-12-12T19:01:30.970Z,84.97
2022-12-12T19:04:57.597Z,84.85
2022-12-12T19:08:24.260Z,84.79
2022-12-12T19:11:54.243Z,84.98
2022-12-12T19:15:25.475Z,85.02
2022-12-12T19:18:52.090Z,84.93
2022-12-12T19:22:43.679Z,85.13
2022-12-12T19:26:11.066Z,85.29
2022-12-12T19:29:38.240Z,85.37
2022-12-12T19:33:05.068Z,85.42
2022-12-12T19:36:32.497Z,85.56
2022-12-12T19:40:01.755Z,85.48
2022-12-12T19:43:31.591Z,85.59
2022-12-12T19:46:58.371Z,85.68
2022-12-12T19:50:25.102Z,85.60
2022-12-12T19:53:53.469Z,85.71
2022-12-12T19:57:21.195Z,85.68
2022-12-12T20:00:50.603Z,85.70
2022-12-12T20:04:19.689Z,85.82
2022-12-12T20:07:46.242Z,85.58
2022-12-12T20:11:15.209Z,85.60
2022-12-12T20:14:41.843Z,85.56
2022-12-12T20:18:14.822Z,85.62
2022-12-12T20:22:00.687Z,85.59
2022-12-12T20:25:28.118Z,85.79
2022-12-12T20:28:57.683Z,85.55
2022-12-12T20:32:24.225Z,85.56
2022-12-12T20:35:50.948Z,85.44
2022-12-12T20:39:22.170Z,85.51
2022-12-12T20:42:55.976Z,85.57
2022-12-12T20:46:29.756Z,85.59
2022-12-12T20:49:56.376Z,85.56
2022-12-12T20:53:23.661Z,85.57
2022-12-12T20:56:50.823Z,85.69
2022-12-12T21:00:19.509Z,85.68
2022-12-12T21:03:47.878Z,85.80
2022-12-12T21:07:14.813Z,85.86
2022-12-12T21:10:41.759Z,85.78
2022-12-12T21:14:09.517Z,85.87
2022-12-12T21:17:36.364Z,85.98
2022-12-12T21:21:02.882Z,85.79
2022-12-12T21:24:30.313Z,85.93
2022-12-12T21:27:58.585Z,85.76
2022-12-12T21:31:28.871Z,85.77
2022-12-12T21:34:55.959Z,85.95
2022-12-12T21:38:22.722Z,86.17
2022-12-12T21:41:49.409Z,86.19
2022-12-12T21:45:17.520Z,86.20
2022-12-12T21:48:44.528Z,86.24
2022-12-12T21:52:12.205Z,86.04
2022-12-12T21:55:41.239Z,86.17
2022-12-12T21:59:08.058Z,86.25
2022-12-12T22:02:34.731Z,85.94
2022-12-12T22:06:01.973Z,85.89
2022-12-12T22:09:29.284Z,86.03
2022-12-12T22:12:57.136Z,85.95
2022-12-12T22:16:24.510Z,85.81
2022-12-12T22:19:51.513Z,85.80
2022-12-12T22:23:18.357Z,85.90
2022-12-12T22:26:47.879Z,85.81
2022-12-12T22:30:16.090Z,85.70
2022-12-12T22:33:42.909Z,85.53
2022-12-12T22:37:09.765Z,84.90
2022-12-12T22:40:36.598Z,84.86
2022-12-12T22:44:07.679Z,84.70
2022-12-12T22:47:34.312Z,84.30
2022-12-12T22:51:01.681Z,84.25
2022-12-12T22:54:29.011Z,84.59
2022-12-12T22:57:55.708Z,84.61
2022-12-12T23:01:24.321Z,84.42
2022-12-12T23:04:50.960Z,84.57
2022-12-12T23:08:17.918Z,84.12
2022-12-12T23:11:46.085Z,83.41
2022-12-12T23:15:14.120Z,83.48
2022-12-12T23:18:42.269Z,83.72
2022-12-12T23:22:09.107Z,83.96
2022-12-12T23:25:37.432Z,83.89
2022-12-12T23:29:05.197Z,83.67
2022-12-12T23:32:32.055Z,83.35
2022-12-12T23:35:58.745Z,83.40
2022-12-12T23:39:26.815Z,83.47
2022-12-12T23:42:54.534Z,83.48
2022-12-12T23:46:32.429Z,83.64
2022-12-12T23:49:59.354Z,83.92
2022-12-12T23:53:26.432Z,83.82
2022-12-12T23:56:54.222Z,83.40
